Time;durP1;ratioP1;P1;durP2;ratioP2;P2;SDS_P1;SDS_P2;PMS_P1;PMS_P2;Temp;Humidity;BMP_temperature;BMP_pressure;BME280_temperature;BME280_humidity;BME280_pressure;Samples;Min_cycle;Max_cycle;Signal;HPM_P1;HPM_P2
2022/01/13 00:04:01;;;;;;;2.65;0.00;;;-2.40;82.20;;;;;;20886887;28;20045;-50
2022/01/13 00:24:18;;;;;;;0.35;0.00;;;-2.00;73.00;;;;;;20869076;28;20048;-50
2022/01/13 00:34:21;;;;;;;0.40;0.00;;;-2.00;78.60;;;;;;20881793;28;20044;-51
2022/01/13 00:44:23;;;;;;;0.10;0.00;;;-2.00;75.20;;;;;;20881286;28;20037;-52
2022/01/13 00:54:26;;;;;;;0.38;0.10;;;-2.10;78.60;;;;;;20881713;28;20653;-50
2022/01/13 01:04:29;;;;;;;0.28;0.00;;;-2.30;78.10;;;;;;20881054;28;20033;-51
2022/01/13 01:14:35;;;;;;;0.30;0.10;;;-2.30;76.00;;;;;;20880195;28;20091;-51
2022/01/13 01:25:01;;;;;;;0.13;0.10;;;-2.00;70.90;;;;;;20850902;28;1318254;-51
2022/01/13 01:35:12;;;;;;;0.30;0.00;;;-2.20;77.60;;;;;;20882685;28;20033;-53
2022/01/13 01:45:17;;;;;;;0.15;0.00;;;-2.50;80.80;;;;;;20882284;28;20033;-52
2022/01/13 01:55:20;;;;;;;0.15;0.00;;;-2.50;84.60;;;;;;20865187;28;20083;-53
2022/01/13 02:05:26;;;;;;;0.10;0.00;;;-2.70;80.90;;;;;;20865353;28;20095;-50
2022/01/13 02:15:35;;;;;;;0.00;0.00;;;-2.90;83.50;;;;;;20894964;28;20033;-52
2022/01/13 02:25:38;;;;;;;0.98;0.10;;;-2.30;80.10;;;;;;20894811;28;20052;-50
2022/01/13 02:35:41;;;;;;;0.00;0.00;;;-2.10;78.80;;;;;;20894199;28;20106;-53
2022/01/13 02:46:02;;;;;;;0.10;0.05;;;-1.90;80.70;;;;;;20910879;28;20442;-54
2022/01/13 02:56:05;;;;;;;0.10;0.05;;;-2.30;75.80;;;;;;20893042;28;20033;-51
2022/01/13 03:06:14;;;;;;;0.20;0.08;;;-2.50;80.60;;;;;;20892263;28;20095;-53
2022/01/13 03:16:17;;;;;;;0.70;0.15;;;-2.90;83.60;;;;;;20891150;28;20126;-52
2022/01/13 03:26:22;;;;;;;0.00;0.00;;;-3.20;81.90;;;;;;20889296;28;20463;-51
2022/01/13 03:36:24;;;;;;;0.28;0.03;;;-3.30;83.20;;;;;;20889623;28;20032;-53
2022/01/13 03:46:27;;;;;;;1.15;0.10;;;-3.30;84.90;;;;;;20889130;28;20029;-55
2022/01/13 03:57:07;;;;;;;0.10;0.05;;;-3.40;86.00;;;;;;20904382;28;20102;-51
2022/01/13 04:07:14;;;;;;;;;;;-3.40;84.60;;;;;;20714698;28;20045;-55
2022/01/13 04:17:19;;;;;;;0.00;0.00;;;-3.50;85.30;;;;;;20730610;28;20362;-50
2022/01/13 04:27:31;;;;;;;0.03;0.00;;;-3.50;86.00;;;;;;20712786;28;20073;-51
2022/01/13 04:37:34;;;;;;;0.45;0.10;;;-3.60;84.50;;;;;;20709859;28;20508;-54
2022/01/13 04:47:38;;;;;;;0.20;0.00;;;-3.50;83.90;;;;;;20802462;28;20405;-53
2022/01/13 04:57:40;;;;;;;0.17;0.05;;;-3.50;87.10;;;;;;20802222;28;20103;-50
2022/01/13 05:07:43;;;;;;;0.13;0.00;;;-3.50;88.50;;;;;;20843818;28;20040;-51
2022/01/13 05:27:54;;;;;;;0.10;0.00;;;-3.10;89.20;;;;;;20883068;28;20041;-51
2022/01/13 05:37:56;;;;;;;0.00;0.00;;;-3.10;90.80;;;;;;20882786;28;20554;-52
2022/01/13 05:48:00;;;;;;;0.38;0.00;;;-3.00;90.20;;;;;;20893154;28;20029;-53
2022/01/13 05:58:03;;;;;;;0.00;0.00;;;-2.80;87.50;;;;;;20897492;28;20496;-52
2022/01/13 06:08:06;;;;;;;3.03;0.10;;;-2.70;85.80;;;;;;20896549;28;20204;-52
2022/01/13 06:18:14;;;;;;;0.20;0.00;;;-2.60;86.20;;;;;;20895792;28;20033;-56
2022/01/13 06:28:17;;;;;;;0.00;0.00;;;-2.60;86.50;;;;;;20895112;28;20071;-51
2022/01/13 06:38:20;;;;;;;0.20;0.00;;;-2.60;85.10;;;;;;20894420;28;20420;-52
2022/01/13 06:48:22;;;;;;;0.00;0.00;;;-2.60;86.20;;;;;;20893649;28;20036;-52
2022/01/13 06:58:25;;;;;;;0.00;0.00;;;-2.60;85.50;;;;;;20892520;28;20724;-51
2022/01/13 07:08:28;;;;;;;0.10;0.00;;;-2.50;84.80;;;;;;20893083;28;20037;-50
2022/01/13 07:18:38;;;;;;;0.05;0.00;;;-2.40;85.10;;;;;;20891523;28;20404;-51
2022/01/13 07:28:41;;;;;;;0.20;0.00;;;-2.20;80.40;;;;;;20906868;28;20470;-54
2022/01/13 07:38:48;;;;;;;0.00;0.00;;;-1.80;81.30;;;;;;20889346;28;20411;-53
2022/01/13 07:48:51;;;;;;;0.10;0.00;;;-1.30;78.70;;;;;;20888806;28;20037;-50
2022/01/13 07:58:55;;;;;;;0.20;0.00;;;-1.10;80.80;;;;;;20888019;28;20037;-51
2022/01/13 08:08:58;;;;;;;0.00;0.00;;;-0.50;82.20;;;;;;20886759;28;20037;-51
2022/01/13 08:29:22;;;;;;;0.00;0.00;;;1.10;76.70;;;;;;20885540;28;20079;-52
2022/01/13 08:39:26;;;;;;;0.03;0.00;;;1.80;75.30;;;;;;20901635;28;20424;-51
2022/01/13 08:49:29;;;;;;;0.20;0.00;;;2.40;72.80;;;;;;20884478;28;20400;-50
2022/01/13 08:59:32;;;;;;;0.25;0.10;;;3.00;72.10;;;;;;20883961;28;20086;-52
2022/01/13 09:09:35;;;;;;;0.10;0.03;;;3.90;68.80;;;;;;20883251;28;20374;-50
2022/01/13 09:19:41;;;;;;;0.10;0.00;;;4.40;67.70;;;;;;20890788;28;20119;-52
2022/01/13 09:29:43;;;;;;;0.10;0.00;;;5.10;66.10;;;;;;20899468;28;20049;-51
2022/01/13 09:39:47;;;;;;;0.20;0.05;;;5.90;59.10;;;;;;20898936;28;20060;-54
2022/01/13 09:49:50;;;;;;;0.17;0.10;;;6.70;54.70;;;;;;20898118;28;20055;-53
2022/01/13 09:59:57;;;;;;;0.25;0.00;;;7.10;50.50;;;;;;20897422;28;20083;-51
2022/01/13 10:10:07;;;;;;;0.22;0.13;;;7.40;51.70;;;;;;20913064;28;20284;-56
2022/01/13 10:20:15;;;;;;;0.30;0.08;;;7.60;50.60;;;;;;20895862;28;20535;-51
2022/01/13 10:30:22;;;;;;;0.50;0.20;;;7.60;48.60;;;;;;20897232;28;20048;-54
2022/01/13 10:40:31;;;;;;;1.10;0.10;;;7.90;49.50;;;;;;20910766;28;20037;-55
2022/01/13 10:50:38;;;;;;;0.10;0.00;;;7.90;44.40;;;;;;20909964;28;20087;-54
2022/01/13 11:00:42;;;;;;;0.22;0.10;;;8.00;46.60;;;;;;20909475;28;20434;-54
2022/01/13 11:10:50;;;;;;;0.20;0.10;;;8.00;48.90;;;;;;20908301;28;20041;-53
2022/01/13 11:20:53;;;;;;;0.30;0.20;;;7.90;46.10;;;;;;20907823;28;20033;-55
2022/01/13 11:30:56;;;;;;;0.95;0.40;;;8.00;47.80;;;;;;20907074;28;20095;-51
2022/01/13 11:41:06;;;;;;;1.73;0.73;;;8.10;46.40;;;;;;20905703;28;20063;-57
2022/01/13 11:51:17;;;;;;;2.55;0.60;;;7.90;47.60;;;;;;20905808;28;20395;-54
2022/01/13 12:01:23;;;;;;;1.20;0.52;;;8.00;48.20;;;;;;20904108;28;20132;-52
2022/01/13 12:11:46;;;;;;;2.25;1.00;;;8.20;49.60;;;;;;20905223;28;20431;-54
2022/01/13 12:22:01;;;;;;;1.98;0.90;;;8.50;50.60;;;;;;20904211;28;20461;-54
2022/01/13 12:32:08;;;;;;;1.75;0.93;;;8.50;48.90;;;;;;20805768;28;20401;-53
2022/01/13 12:42:19;;;;;;;2.33;1.15;;;8.30;48.90;;;;;;20805767;28;20088;-54
2022/01/13 12:52:25;;;;;;;1.80;0.98;;;8.20;51.40;;;;;;20809114;28;20029;-54
2022/01/13 13:02:29;;;;;;;2.85;1.15;;;8.10;52.90;;;;;;20810760;28;20037;-53
2022/01/13 13:12:35;;;;;;;1.00;0.60;;;7.80;49.70;;;;;;20808146;28;20095;-56
2022/01/13 13:22:45;;;;;;;2.33;1.10;;;7.50;52.70;;;;;;20811936;28;20107;-53
2022/01/13 13:32:52;;;;;;;2.20;1.23;;;6.80;54.50;;;;;;20883375;28;20059;-52
2022/01/13 13:43:05;;;;;;;3.22;1.02;;;6.00;55.20;;;;;;20882087;28;20099;-54
2022/01/13 13:53:14;;;;;;;6.22;1.85;;;5.50;55.10;;;;;;20882049;28;20106;-52
2022/01/13 14:03:22;;;;;;;7.85;1.90;;;4.90;57.60;;;;;;20884998;28;20550;-54
2022/01/13 14:13:25;;;;;;;2.22;1.30;;;4.60;57.20;;;;;;20896913;28;20033;-53
2022/01/13 14:23:33;;;;;;;5.25;2.63;;;4.20;54.20;;;;;;20895753;28;20159;-55
2022/01/13 14:33:44;;;;;;;6.05;3.08;;;3.70;60.10;;;;;;20894982;28;20044;-54
2022/01/13 14:44:07;;;;;;;4.70;2.53;;;3.40;62.20;;;;;;20894313;28;20071;-51
2022/01/13 14:54:12;;;;;;;3.80;2.28;;;3.10;62.70;;;;;;20894169;28;20071;-52
2022/01/13 15:04:15;;;;;;;4.82;2.13;;;2.80;67.30;;;;;;20892446;28;20041;-56
2022/01/13 15:14:18;;;;;;;4.00;1.80;;;2.40;66.00;;;;;;20890866;28;20205;-53
2022/01/13 15:24:20;;;;;;;3.88;1.85;;;2.00;72.80;;;;;;20890388;28;20045;-52
2022/01/13 15:34:23;;;;;;;4.50;1.52;;;1.70;78.60;;;;;;20886797;28;20067;-52
2022/01/13 15:44:25;;;;;;;2.33;1.30;;;1.20;82.90;;;;;;20888497;28;20492;-53
2022/01/13 15:54:29;;;;;;;1.40;0.60;;;0.80;80.60;;;;;;20887667;28;20052;-54
2022/01/13 16:04:31;;;;;;;1.38;0.20;;;0.60;79.70;;;;;;20886893;28;20040;-52
2022/01/13 16:14:34;;;;;;;1.10;0.40;;;0.60;79.20;;;;;;20886235;28;20098;-54
2022/01/13 16:24:37;;;;;;;1.30;0.30;;;0.50;79.00;;;;;;20886967;28;20570;-53
2022/01/13 16:34:40;;;;;;;3.38;0.30;;;0.40;80.20;;;;;;20884590;28;20438;-51
2022/01/13 16:44:44;;;;;;;0.65;0.20;;;0.20;79.90;;;;;;20884133;28;20033;-57
2022/01/13 16:54:47;;;;;;;0.75;0.10;;;0.30;79.70;;;;;;20883571;28;20033;-51
2022/01/13 17:04:50;;;;;;;0.30;0.10;;;0.40;79.10;;;;;;20883589;28;20032;-56
2022/01/13 17:14:52;;;;;;;0.45;0.20;;;0.60;79.50;;;;;;20884027;28;20098;-53
2022/01/13 17:24:55;;;;;;;0.43;0.08;;;0.70;83.10;;;;;;20882739;28;20102;-52
2022/01/13 17:34:58;;;;;;;0.00;0.00;;;0.70;79.40;;;;;;20883233;28;20041;-52
2022/01/13 17:45:03;;;;;;;0.00;0.00;;;0.70;85.20;;;;;;20894486;28;20404;-53
2022/01/13 17:55:07;;;;;;;0.35;0.10;;;0.70;85.80;;;;;;20895882;28;20037;-53
2022/01/13 18:05:11;;;;;;;0.25;0.00;;;0.90;86.10;;;;;;20896701;28;20111;-53
2022/01/13 18:15:14;;;;;;;0.00;0.00;;;1.10;83.00;;;;;;20896471;28;20070;-50
2022/01/13 18:25:16;;;;;;;0.10;0.03;;;1.40;78.60;;;;;;20894664;28;20110;-51
2022/01/13 18:35:19;;;;;;;0.20;0.00;;;1.40;80.40;;;;;;20894105;28;20087;-52
2022/01/13 18:45:24;;;;;;;0.00;0.00;;;1.50;79.40;;;;;;20893165;28;20045;-56
2022/01/13 18:55:28;;;;;;;0.00;0.00;;;1.40;80.80;;;;;;20891981;28;20045;-54
2022/01/13 19:05:31;;;;;;;0.10;0.00;;;1.50;78.80;;;;;;20891734;28;20029;-53
2022/01/13 19:15:35;;;;;;;0.28;0.00;;;1.60;82.30;;;;;;20891112;28;20087;-54
2022/01/13 19:25:40;;;;;;;2.20;0.15;;;1.40;84.50;;;;;;20890576;28;20072;-53
2022/01/13 19:35:43;;;;;;;0.70;0.10;;;1.30;83.90;;;;;;20889631;28;20075;-53
2022/01/13 19:45:46;;;;;;;2.35;0.00;;;1.40;83.60;;;;;;20905203;28;20113;-51
2022/01/13 19:55:50;;;;;;;0.30;0.00;;;1.30;83.90;;;;;;20887494;28;20037;-53
2022/01/13 20:05:53;;;;;;;0.00;0.00;;;1.60;82.30;;;;;;20888504;28;20546;-51
2022/01/13 20:15:58;;;;;;;0.05;0.00;;;1.40;82.30;;;;;;20886662;28;20422;-54
2022/01/13 20:26:01;;;;;;;0.20;0.00;;;1.50;85.20;;;;;;20886295;28;20045;-56
2022/01/13 20:36:04;;;;;;;0.00;0.00;;;1.30;83.90;;;;;;20884732;28;20444;-53
2022/01/13 20:46:07;;;;;;;0.00;0.00;;;1.50;83.90;;;;;;20885501;28;20075;-51
2022/01/13 20:56:41;;;;;;;0.20;0.00;;;1.50;82.10;;;;;;20902093;28;20048;-52
2022/01/13 21:06:43;;;;;;;0.10;0.00;;;1.60;81.90;;;;;;20883275;28;20037;-55
2022/01/13 21:16:46;;;;;;;0.10;0.00;;;2.10;79.60;;;;;;20893008;28;20041;-52
2022/01/13 21:26:51;;;;;;;0.00;0.00;;;1.90;82.30;;;;;;20883005;28;20416;-52
2022/01/13 21:36:54;;;;;;;0.00;0.00;;;1.50;83.20;;;;;;20898421;28;20103;-51
2022/01/13 21:46:56;;;;;;;0.00;0.00;;;1.70;83.60;;;;;;20897742;28;20445;-56
2022/01/13 21:56:59;;;;;;;0.00;0.00;;;1.70;84.60;;;;;;20897860;28;20041;-52
2022/01/13 22:07:04;;;;;;;0.00;0.00;;;1.90;86.50;;;;;;20896373;28;20078;-51
2022/01/13 22:17:07;;;;;;;0.00;0.00;;;1.70;87.20;;;;;;20895439;28;20083;-52
2022/01/13 22:27:11;;;;;;;0.00;0.00;;;1.70;88.40;;;;;;20893983;28;20580;-53
2022/01/13 22:37:16;;;;;;;0.00;0.00;;;1.60;89.70;;;;;;20877411;28;20064;-52
2022/01/13 22:47:19;;;;;;;0.00;0.00;;;1.50;89.70;;;;;;20893338;28;20099;-55
2022/01/13 22:57:24;;;;;;;0.15;0.00;;;1.40;89.30;;;;;;20892560;28;20033;-52
2022/01/13 23:07:28;;;;;;;0.00;0.00;;;1.40;88.50;;;;;;20891642;28;20167;-51
2022/01/13 23:27:59;;;;;;;0.10;0.00;;;1.30;89.80;;;;;;20890249;28;20139;-52
2022/01/13 23:38:01;;;;;;;0.00;0.00;;;1.60;89.20;;;;;;20904697;28;20037;-54
2022/01/13 23:48:04;;;;;;;0.20;0.00;;;1.50;89.30;;;;;;20888241;28;20037;-56
2022/01/13 23:58:06;;;;;;;0.63;0.00;;;1.50;90.00;;;;;;20887232;28;20071;-52
